Terminal Aerodrome Forecast
Issued by NWS Chicago, IL

Home | Current Version | Previous Version | Graphics & Text | Print | Product List | Glossary On
Versions: 1 2 3 4 5 6 7 8 9 10 11 12 13 14 15 16 17 18 19 20 21 22 23 24 25 26
270
FTUS43 KLOT 161733
TAFRFD
TAF
KRFD 161733Z 1618/1718 31013KT P6SM SKC
     FM162100 28008KT P6SM SKC
     FM170200 24004KT P6SM SKC
     FM170600 19006KT P6SM FEW180 BKN250
     FM171500 20010KT P6SM OVC100=

USA.gov is the U.S. government's official web portal to all federal, state and local government web resources and services.